Time;durP1;ratioP1;P1;durP2;ratioP2;P2;SDS_P1;SDS_P2;PMS_P1;PMS_P2;Temp;Humidity;BMP_temperature;BMP_pressure;BME280_temperature;BME280_humidity;BME280_pressure;Samples;Min_cycle;Max_cycle;Signal;HPM_P1;HPM_P2
2023/05/13 00:00:53;;;;;;;5.22;4.13;;;;;;;;;;5059933;28;20227;-50
2023/05/13 00:03:19;;;;;;;4.22;3.80;;;;;;;;;;5055145;28;20620;-51
2023/05/13 00:05:46;;;;;;;4.68;4.25;;;;;;;;;;5059084;28;20255;-51
2023/05/13 00:08:12;;;;;;;10.07;4.05;;;;;;;;;;5061124;28;20277;-52
2023/05/13 00:10:39;;;;;;;5.97;4.70;;;;;;;;;;5051840;28;20244;-52
2023/05/13 00:13:05;;;;;;;9.75;4.00;;;;;;;;;;5051425;28;20235;-51
2023/05/13 00:15:33;;;;;;;5.50;4.00;;;;;;;;;;5060041;28;20231;-53
2023/05/13 00:17:59;;;;;;;4.68;4.03;;;;;;;;;;5055621;28;20591;-51
2023/05/13 00:20:26;;;;;;;7.00;3.80;;;;;;;;;;5049187;28;20231;-50
2023/05/13 00:22:52;;;;;;;4.00;3.55;;;;;;;;;;5057505;28;20227;-54
2023/05/13 00:25:18;;;;;;;3.92;3.55;;;;;;;;;;5054198;28;20643;-52
2023/05/13 00:27:45;;;;;;;9.35;4.93;;;;;;;;;;5057805;28;20244;-52
2023/05/13 00:30:12;;;;;;;4.68;3.60;;;;;;;;;;5052080;28;20694;-50
2023/05/13 00:32:39;;;;;;;4.93;4.15;;;;;;;;;;5054004;28;20747;-51
2023/05/13 00:35:06;;;;;;;8.43;5.50;;;;;;;;;;5052338;28;20232;-50
2023/05/13 00:37:32;;;;;;;4.68;4.22;;;;;;;;;;5045918;28;20234;-51
2023/05/13 00:39:59;;;;;;;5.07;4.53;;;;;;;;;;5059840;28;20233;-52
2023/05/13 00:42:25;;;;;;;4.32;3.90;;;;;;;;;;5049756;28;20837;-51
2023/05/13 00:44:51;;;;;;;4.13;3.70;;;;;;;;;;5049108;28;20311;-51
2023/05/13 00:47:18;;;;;;;7.18;4.47;;;;;;;;;;5054171;28;20234;-51
2023/05/13 00:49:46;;;;;;;4.93;4.18;;;;;;;;;;5054731;28;20235;-51
2023/05/13 00:52:12;;;;;;;5.07;4.57;;;;;;;;;;5054475;28;20931;-52
2023/05/13 00:54:38;;;;;;;6.47;4.32;;;;;;;;;;5059207;28;20245;-51
2023/05/13 00:57:05;;;;;;;4.75;4.30;;;;;;;;;;5057573;28;20306;-52
2023/05/13 00:59:31;;;;;;;5.35;4.93;;;;;;;;;;5060589;28;20231;-51
2023/05/13 01:02:03;;;;;;;7.57;4.22;;;;;;;;;;5043854;28;20245;-51
2023/05/13 01:04:34;;;;;;;6.70;4.38;;;;;;;;;;5050926;28;20231;-52
2023/05/13 01:07:07;;;;;;;10.85;4.10;;;;;;;;;;5059733;28;20320;-51
2023/05/13 01:09:38;;;;;;;4.88;4.25;;;;;;;;;;5054541;28;20223;-51
2023/05/13 01:12:07;;;;;;;4.97;4.07;;;;;;;;;;5053333;28;20246;-52
2023/05/13 01:14:36;;;;;;;4.70;4.30;;;;;;;;;;5060710;28;20238;-51
2023/05/13 01:17:07;;;;;;;9.88;3.97;;;;;;;;;;5052073;28;20227;-51
2023/05/13 01:19:38;;;;;;;7.20;4.47;;;;;;;;;;5055842;28;20227;-52
2023/05/13 01:22:06;;;;;;;5.57;3.95;;;;;;;;;;5053280;28;20235;-51
2023/05/13 01:24:32;;;;;;;6.93;4.22;;;;;;;;;;5053578;28;20235;-53
2023/05/13 01:26:59;;;;;;;4.97;3.72;;;;;;;;;;5053836;28;20240;-52
2023/05/13 01:29:25;;;;;;;4.95;4.13;;;;;;;;;;5061887;28;20894;-51
2023/05/13 01:31:53;;;;;;;4.60;3.92;;;;;;;;;;5050889;28;20227;-53
2023/05/13 01:34:20;;;;;;;4.75;4.38;;;;;;;;;;5051363;28;20641;-51
2023/05/13 01:36:47;;;;;;;4.20;3.88;;;;;;;;;;5056468;28;20220;-51
2023/05/13 01:39:15;;;;;;;8.27;3.90;;;;;;;;;;5053380;28;20227;-51
2023/05/13 01:41:43;;;;;;;7.38;4.47;;;;;;;;;;5053611;28;21433;-50
2023/05/13 01:44:09;;;;;;;4.43;4.03;;;;;;;;;;5056750;28;20600;-52
2023/05/13 01:46:38;;;;;;;4.22;3.83;;;;;;;;;;5055923;28;20299;-51
2023/05/13 01:49:06;;;;;;;4.72;4.25;;;;;;;;;;5055979;28;20226;-50
2023/05/13 01:51:33;;;;;;;6.00;4.55;;;;;;;;;;5056568;28;20231;-52
2023/05/13 01:54:00;;;;;;;6.68;3.90;;;;;;;;;;5057397;28;20776;-52
2023/05/13 01:56:27;;;;;;;7.15;4.15;;;;;;;;;;5057652;28;20224;-53
2023/05/13 01:58:54;;;;;;;5.22;4.18;;;;;;;;;;5051655;28;20232;-52
2023/05/13 02:01:20;;;;;;;6.47;4.03;;;;;;;;;;5054306;28;20227;-52
2023/05/13 02:03:46;;;;;;;6.15;4.22;;;;;;;;;;5059862;28;20613;-51
2023/05/13 02:06:13;;;;;;;5.93;3.80;;;;;;;;;;5058461;28;20335;-52
2023/05/13 02:08:39;;;;;;;7.78;5.07;;;;;;;;;;5043707;28;20317;-51
2023/05/13 02:11:06;;;;;;;8.50;4.47;;;;;;;;;;5050023;28;20286;-51
2023/05/13 02:13:33;;;;;;;5.85;4.60;;;;;;;;;;5047859;28;20234;-52
2023/05/13 02:16:00;;;;;;;4.88;4.47;;;;;;;;;;5057541;28;20231;-52
2023/05/13 02:18:26;;;;;;;8.60;4.45;;;;;;;;;;5055649;28;20241;-52
2023/05/13 02:20:52;;;;;;;5.43;4.05;;;;;;;;;;5049911;28;20233;-51
2023/05/13 02:23:19;;;;;;;6.65;3.80;;;;;;;;;;5053998;28;20322;-51
2023/05/13 02:25:45;;;;;;;6.22;4.68;;;;;;;;;;5048279;27;20220;-52
2023/05/13 02:28:12;;;;;;;5.00;4.45;;;;;;;;;;5052556;27;20236;-51
2023/05/13 02:30:40;;;;;;;5.47;4.45;;;;;;;;;;5050487;27;21004;-51
2023/05/13 02:33:07;;;;;;;5.70;4.38;;;;;;;;;;5051051;27;20231;-52
2023/05/13 02:35:34;;;;;;;5.15;4.65;;;;;;;;;;5046982;27;20229;-51
2023/05/13 02:38:02;;;;;;;7.15;4.38;;;;;;;;;;5054299;27;20227;-51
2023/05/13 02:40:29;;;;;;;10.85;4.75;;;;;;;;;;5058206;28;20289;-52
2023/05/13 02:42:56;;;;;;;6.00;4.15;;;;;;;;;;5063890;28;20231;-51
2023/05/13 02:45:22;;;;;;;4.50;3.88;;;;;;;;;;5053542;28;20284;-52
2023/05/13 02:47:51;;;;;;;6.22;4.25;;;;;;;;;;5054106;28;20238;-51
2023/05/13 02:50:17;;;;;;;4.38;4.00;;;;;;;;;;5051543;27;20288;-50
2023/05/13 02:52:44;;;;;;;6.57;4.40;;;;;;;;;;5058855;27;20345;-50
2023/05/13 02:55:11;;;;;;;6.70;4.53;;;;;;;;;;5057543;27;20242;-50
2023/05/13 02:57:38;;;;;;;5.30;4.47;;;;;;;;;;5054088;27;20232;-51
2023/05/13 03:00:05;;;;;;;6.00;3.95;;;;;;;;;;5056035;27;20241;-51
2023/05/13 03:02:32;;;;;;;4.82;4.43;;;;;;;;;;5053100;27;20243;-51
2023/05/13 03:05:00;;;;;;;6.82;4.40;;;;;;;;;;5059322;27;20234;-53
2023/05/13 03:07:26;;;;;;;8.23;4.63;;;;;;;;;;5058876;27;20331;-51
2023/05/13 03:09:53;;;;;;;7.82;4.55;;;;;;;;;;5055236;27;20232;-51
2023/05/13 03:12:20;;;;;;;8.15;4.50;;;;;;;;;;5053407;27;20267;-52
2023/05/13 03:14:46;;;;;;;5.70;4.28;;;;;;;;;;5055116;27;20237;-52
2023/05/13 03:17:13;;;;;;;7.18;4.15;;;;;;;;;;5061273;28;20300;-51
2023/05/13 03:19:40;;;;;;;7.97;5.28;;;;;;;;;;5054702;28;21991;-54
2023/05/13 03:22:08;;;;;;;5.82;4.15;;;;;;;;;;5055259;28;20767;-52
2023/05/13 03:24:34;;;;;;;5.00;4.22;;;;;;;;;;5056861;28;20291;-51
2023/05/13 03:27:01;;;;;;;8.10;4.32;;;;;;;;;;5066839;28;20241;-51
2023/05/13 03:29:27;;;;;;;4.57;4.07;;;;;;;;;;5057840;28;20277;-51
2023/05/13 03:31:54;;;;;;;5.35;4.30;;;;;;;;;;5065204;28;20241;-51
2023/05/13 03:34:21;;;;;;;11.32;4.40;;;;;;;;;;5056682;28;20235;-53
2023/05/13 03:36:47;;;;;;;4.22;3.83;;;;;;;;;;5059458;28;20699;-53
2023/05/13 03:39:16;;;;;;;11.25;5.03;;;;;;;;;;5060720;28;20303;-53
2023/05/13 03:41:43;;;;;;;4.38;3.90;;;;;;;;;;5057532;28;20235;-52
2023/05/13 03:44:09;;;;;;;8.00;4.55;;;;;;;;;;5063546;28;20239;-52
2023/05/13 03:46:36;;;;;;;8.43;4.82;;;;;;;;;;5060983;28;20232;-51
2023/05/13 03:49:03;;;;;;;4.30;3.90;;;;;;;;;;5053395;28;20495;-50
2023/05/13 03:51:30;;;;;;;7.85;4.35;;;;;;;;;;5051918;28;20228;-51
2023/05/13 03:53:56;;;;;;;5.07;4.68;;;;;;;;;;5059149;28;20267;-50
2023/05/13 03:56:24;;;;;;;5.60;4.78;;;;;;;;;;5062003;28;20227;-51
2023/05/13 03:58:51;;;;;;;4.60;4.18;;;;;;;;;;5052362;28;20242;-53
2023/05/13 04:01:17;;;;;;;4.47;4.03;;;;;;;;;;5060145;28;20766;-52
2023/05/13 04:03:45;;;;;;;5.47;4.85;;;;;;;;;;5057151;28;20236;-52
2023/05/13 04:06:12;;;;;;;4.50;4.10;;;;;;;;;;5055775;28;20235;-53
2023/05/13 04:08:39;;;;;;;5.60;4.43;;;;;;;;;;5054927;28;20235;-50
2023/05/13 04:11:06;;;;;;;8.43;5.20;;;;;;;;;;5066075;28;20237;-52
2023/05/13 04:13:34;;;;;;;7.53;4.78;;;;;;;;;;5061586;28;20322;-52
2023/05/13 04:16:00;;;;;;;7.47;4.60;;;;;;;;;;5062937;28;20269;-51
2023/05/13 04:18:27;;;;;;;4.50;4.10;;;;;;;;;;5057526;28;20235;-50
2023/05/13 04:20:53;;;;;;;5.03;4.53;;;;;;;;;;5059959;28;20720;-50
2023/05/13 04:23:20;;;;;;;7.38;4.45;;;;;;;;;;5054622;28;20238;-52
2023/05/13 04:25:50;;;;;;;5.50;4.90;;;;;;;;;;5061857;28;20280;-54
2023/05/13 04:28:16;;;;;;;8.82;4.88;;;;;;;;;;5058057;28;20227;-51
2023/05/13 04:30:44;;;;;;;8.30;5.63;;;;;;;;;;5058873;28;20307;-51
2023/05/13 04:33:11;;;;;;;11.32;4.72;;;;;;;;;;5056566;28;20296;-51
2023/05/13 04:35:38;;;;;;;4.85;4.45;;;;;;;;;;5059778;28;20586;-52
2023/05/13 04:38:05;;;;;;;5.20;4.75;;;;;;;;;;5060376;28;20303;-51
2023/05/13 04:40:31;;;;;;;4.63;4.22;;;;;;;;;;5056591;28;20259;-51
2023/05/13 04:42:58;;;;;;;6.53;5.65;;;;;;;;;;5055929;27;20326;-52
2023/05/13 04:45:24;;;;;;;5.10;4.07;;;;;;;;;;5061488;28;20227;-51
2023/05/13 04:47:52;;;;;;;6.50;4.75;;;;;;;;;;5059942;27;20635;-52
2023/05/13 04:50:19;;;;;;;6.35;4.35;;;;;;;;;;5050818;28;20240;-51
2023/05/13 04:52:46;;;;;;;4.95;4.43;;;;;;;;;;5048977;28;20742;-50
2023/05/13 04:55:13;;;;;;;7.95;5.15;;;;;;;;;;5046970;27;20747;-51
2023/05/13 04:57:39;;;;;;;7.53;5.22;;;;;;;;;;5047709;28;20235;-51
2023/05/13 05:00:07;;;;;;;5.93;4.30;;;;;;;;;;5048517;28;20308;-52
2023/05/13 05:02:33;;;;;;;4.95;4.18;;;;;;;;;;5049552;28;20697;-51
2023/05/13 05:05:01;;;;;;;6.78;4.10;;;;;;;;;;5035799;28;20741;-50
2023/05/13 05:07:28;;;;;;;7.18;4.72;;;;;;;;;;5026881;28;20236;-52
2023/05/13 05:09:55;;;;;;;6.35;3.88;;;;;;;;;;5029420;28;20232;-52
2023/05/13 05:12:21;;;;;;;5.00;3.70;;;;;;;;;;5032895;28;20240;-52
2023/05/13 05:14:48;;;;;;;8.80;4.25;;;;;;;;;;5044942;28;20292;-52
2023/05/13 05:17:15;;;;;;;4.47;4.07;;;;;;;;;;5048787;28;20231;-51
2023/05/13 05:19:42;;;;;;;6.00;4.97;;;;;;;;;;5051065;28;20567;-52
2023/05/13 05:22:10;;;;;;;7.13;3.97;;;;;;;;;;5053771;28;20230;-51
2023/05/13 05:24:36;;;;;;;10.63;4.85;;;;;;;;;;5058032;28;20219;-51
2023/05/13 05:27:03;;;;;;;3.97;3.58;;;;;;;;;;5057449;28;20235;-51
2023/05/13 05:29:30;;;;;;;5.85;4.18;;;;;;;;;;5044876;28;20231;-52
2023/05/13 05:31:56;;;;;;;3.95;3.65;;;;;;;;;;5048212;28;20243;-50
2023/05/13 05:34:23;;;;;;;7.50;4.00;;;;;;;;;;5050681;28;20232;-52
2023/05/13 05:36:50;;;;;;;4.07;3.70;;;;;;;;;;5051324;28;20698;-50
2023/05/13 05:39:19;;;;;;;6.35;4.05;;;;;;;;;;5060022;28;20231;-50
2023/05/13 05:41:46;;;;;;;4.90;4.20;;;;;;;;;;5053878;28;20743;-51
2023/05/13 05:44:13;;;;;;;5.20;4.10;;;;;;;;;;5060365;28;20258;-51
2023/05/13 05:46:39;;;;;;;7.65;4.85;;;;;;;;;;5057925;28;20807;-51
2023/05/13 05:49:07;;;;;;;4.80;3.80;;;;;;;;;;5059744;28;20252;-53
2023/05/13 05:51:33;;;;;;;4.28;3.67;;;;;;;;;;5061274;28;20330;-51
2023/05/13 05:54:00;;;;;;;4.85;3.80;;;;;;;;;;5049673;28;20261;-50
2023/05/13 05:56:28;;;;;;;7.60;3.25;;;;;;;;;;5045182;28;20255;-52
2023/05/13 05:58:54;;;;;;;3.75;3.33;;;;;;;;;;5052065;28;20231;-56
2023/05/13 06:01:21;;;;;;;4.05;3.22;;;;;;;;;;5039076;28;20239;-53
2023/05/13 06:03:47;;;;;;;6.15;3.17;;;;;;;;;;5054354;28;20655;-51
2023/05/13 06:06:14;;;;;;;4.95;4.20;;;;;;;;;;5053976;28;20219;-51
2023/05/13 06:08:40;;;;;;;4.15;3.85;;;;;;;;;;5055040;28;20243;-52
2023/05/13 06:11:07;;;;;;;3.97;3.67;;;;;;;;;;5048499;28;20228;-51
2023/05/13 06:13:35;;;;;;;5.40;3.75;;;;;;;;;;5049876;28;20243;-52
2023/05/13 06:16:02;;;;;;;3.90;3.50;;;;;;;;;;5054600;28;20235;-51
2023/05/13 06:18:28;;;;;;;5.15;3.90;;;;;;;;;;5059572;28;20333;-51
2023/05/13 06:20:55;;;;;;;7.68;3.78;;;;;;;;;;5052039;28;20284;-52
2023/05/13 06:23:21;;;;;;;8.00;3.50;;;;;;;;;;5051030;28;20296;-51
2023/05/13 06:25:48;;;;;;;5.35;3.60;;;;;;;;;;5060106;28;20228;-51
2023/05/13 06:28:15;;;;;;;10.25;3.40;;;;;;;;;;5058630;28;20705;-52
2023/05/13 06:30:43;;;;;;;5.03;4.20;;;;;;;;;;5055610;28;20242;-52
2023/05/13 06:33:11;;;;;;;6.22;4.03;;;;;;;;;;5060557;28;20240;-57
2023/05/13 06:35:38;;;;;;;3.42;3.13;;;;;;;;;;5046767;28;20330;-52
2023/05/13 06:38:04;;;;;;;7.10;4.20;;;;;;;;;;5059528;28;20232;-56
2023/05/13 06:40:32;;;;;;;4.85;3.90;;;;;;;;;;5059189;28;20315;-52
2023/05/13 06:42:58;;;;;;;7.75;3.53;;;;;;;;;;5057253;28;20280;-51
2023/05/13 06:45:25;;;;;;;6.35;3.50;;;;;;;;;;5045787;28;20263;-50
2023/05/13 06:47:53;;;;;;;8.23;3.45;;;;;;;;;;5047656;28;20243;-52
2023/05/13 06:50:20;;;;;;;5.72;3.72;;;;;;;;;;5042970;28;20231;-51
2023/05/13 06:52:46;;;;;;;7.78;3.80;;;;;;;;;;5059059;28;20287;-51
2023/05/13 06:55:13;;;;;;;3.88;3.15;;;;;;;;;;5050811;28;20224;-51
2023/05/13 06:57:42;;;;;;;7.70;3.88;;;;;;;;;;5050146;28;20234;-50
2023/05/13 07:00:09;;;;;;;3.72;2.70;;;;;;;;;;5052295;27;20248;-51
2023/05/13 07:02:35;;;;;;;3.70;3.40;;;;;;;;;;5043916;28;20773;-52
2023/05/13 07:05:03;;;;;;;3.55;3.17;;;;;;;;;;5051794;28;20281;-50
2023/05/13 07:07:30;;;;;;;4.05;3.60;;;;;;;;;;5043924;28;20280;-52
2023/05/13 07:09:56;;;;;;;5.93;3.83;;;;;;;;;;5049060;28;20722;-52
2023/05/13 07:12:23;;;;;;;5.00;3.70;;;;;;;;;;5053619;28;20227;-51
2023/05/13 07:14:49;;;;;;;6.15;3.70;;;;;;;;;;5047032;28;20227;-51
2023/05/13 07:17:16;;;;;;;3.80;3.50;;;;;;;;;;5051884;28;20306;-51
2023/05/13 07:19:42;;;;;;;3.92;3.22;;;;;;;;;;5058393;28;20231;-52
2023/05/13 07:22:10;;;;;;;3.42;3.13;;;;;;;;;;5055796;28;20615;-51
2023/05/13 07:24:37;;;;;;;7.93;3.33;;;;;;;;;;5061076;28;20230;-51
2023/05/13 07:27:03;;;;;;;3.47;3.00;;;;;;;;;;5056781;28;20227;-50
2023/05/13 07:29:30;;;;;;;3.38;2.70;;;;;;;;;;5063311;28;20235;-51
2023/05/13 07:31:56;;;;;;;7.95;3.60;;;;;;;;;;5061680;28;20239;-51
2023/05/13 07:34:23;;;;;;;5.20;3.10;;;;;;;;;;5057932;28;20312;-51
2023/05/13 07:36:49;;;;;;;5.72;3.65;;;;;;;;;;5064716;28;20350;-51
2023/05/13 07:39:17;;;;;;;4.00;2.78;;;;;;;;;;5056339;28;20310;-51
2023/05/13 07:41:44;;;;;;;3.72;3.17;;;;;;;;;;5060118;28;20254;-51
2023/05/13 07:44:12;;;;;;;3.28;2.97;;;;;;;;;;5062892;28;20227;-51
2023/05/13 07:46:38;;;;;;;4.57;2.90;;;;;;;;;;5056924;28;20304;-52
2023/05/13 07:49:07;;;;;;;3.20;2.85;;;;;;;;;;5057092;28;20223;-51
2023/05/13 07:51:33;;;;;;;3.53;3.13;;;;;;;;;;5051372;28;20235;-51
2023/05/13 07:54:00;;;;;;;4.00;3.03;;;;;;;;;;5059071;28;20231;-52
2023/05/13 07:56:28;;;;;;;4.30;2.53;;;;;;;;;;5061873;28;20259;-52
2023/05/13 07:58:55;;;;;;;2.85;2.60;;;;;;;;;;5046459;28;20251;-52
2023/05/13 08:01:21;;;;;;;6.05;2.78;;;;;;;;;;5057290;28;20227;-51
2023/05/13 08:03:47;;;;;;;4.75;2.50;;;;;;;;;;5057879;28;20954;-53
2023/05/13 08:06:14;;;;;;;3.13;2.55;;;;;;;;;;5057870;28;20223;-52
2023/05/13 08:08:40;;;;;;;2.72;2.53;;;;;;;;;;5054344;28;20330;-52
2023/05/13 08:11:06;;;;;;;2.95;2.65;;;;;;;;;;5058929;28;20277;-55
2023/05/13 08:13:34;;;;;;;5.43;2.58;;;;;;;;;;5059313;28;20345;-51
2023/05/13 08:16:02;;;;;;;2.75;2.35;;;;;;;;;;5065295;28;20243;-51
2023/05/13 08:18:28;;;;;;;4.03;3.03;;;;;;;;;;5067413;28;20699;-50
2023/05/13 08:20:55;;;;;;;6.18;2.92;;;;;;;;;;5065701;28;20732;-52
2023/05/13 08:23:21;;;;;;;3.00;2.67;;;;;;;;;;5060195;28;20266;-52
2023/05/13 08:25:47;;;;;;;4.00;3.10;;;;;;;;;;5073056;28;20234;-51
2023/05/13 08:28:14;;;;;;;4.10;2.90;;;;;;;;;;5067620;28;20891;-51
2023/05/13 08:30:43;;;;;;;4.05;3.33;;;;;;;;;;5066160;28;20248;-52
2023/05/13 08:33:09;;;;;;;3.78;2.63;;;;;;;;;;5066000;28;20262;-51
2023/05/13 08:35:36;;;;;;;5.13;3.22;;;;;;;;;;5066033;28;20685;-51
2023/05/13 08:38:04;;;;;;;3.88;2.88;;;;;;;;;;5062397;28;20242;-52
2023/05/13 08:40:30;;;;;;;5.55;3.38;;;;;;;;;;5055903;28;20730;-51
2023/05/13 08:42:57;;;;;;;3.58;3.20;;;;;;;;;;5062722;28;20242;-51
2023/05/13 08:45:26;;;;;;;5.65;3.45;;;;;;;;;;5054286;28;20230;-51
2023/05/13 08:47:55;;;;;;;5.05;2.65;;;;;;;;;;5064502;28;20231;-51
2023/05/13 08:50:22;;;;;;;5.05;3.33;;;;;;;;;;5059639;28;20222;-52
2023/05/13 08:52:49;;;;;;;5.85;3.58;;;;;;;;;;5052352;28;20232;-51
2023/05/13 08:55:17;;;;;;;4.10;3.15;;;;;;;;;;5053924;28;20237;-52
2023/05/13 08:57:44;;;;;;;4.05;3.03;;;;;;;;;;5059409;28;20323;-51
2023/05/13 09:00:11;;;;;;;3.53;3.20;;;;;;;;;;5054541;28;20231;-52
2023/05/13 09:02:37;;;;;;;3.45;2.78;;;;;;;;;;5055936;28;20781;-51
2023/05/13 09:05:06;;;;;;;4.20;3.05;;;;;;;;;;5051864;28;20238;-50
2023/05/13 09:07:32;;;;;;;4.55;3.22;;;;;;;;;;5055722;28;20239;-50
2023/05/13 09:09:59;;;;;;;3.65;3.05;;;;;;;;;;5055304;28;20228;-52
2023/05/13 09:12:55;;;;;;;8.20;3.88;;;;;;;;;;5058569;28;20250;-50
2023/05/13 09:15:22;;;;;;;4.85;3.10;;;;;;;;;;4999707;28;20579;-52
2023/05/13 09:17:51;;;;;;;4.93;3.42;;;;;;;;;;5035343;28;20223;-50
2023/05/13 09:20:19;;;;;;;3.40;3.10;;;;;;;;;;5045407;28;20274;-51
2023/05/13 09:22:46;;;;;;;5.00;3.17;;;;;;;;;;5046377;28;20240;-51
2023/05/13 09:25:13;;;;;;;4.80;3.00;;;;;;;;;;5057367;28;20235;-50
2023/05/13 09:27:40;;;;;;;3.28;2.75;;;;;;;;;;5061440;28;20243;-50
2023/05/13 09:30:07;;;;;;;7.65;3.45;;;;;;;;;;5052406;28;20656;-50
2023/05/13 09:32:33;;;;;;;7.03;3.40;;;;;;;;;;5056890;28;20261;-51
2023/05/13 09:35:08;;;;;;;6.03;2.95;;;;;;;;;;5058714;28;20326;-52
2023/05/13 09:37:35;;;;;;;4.85;3.05;;;;;;;;;;5055515;28;20242;-51
2023/05/13 09:40:02;;;;;;;4.45;3.22;;;;;;;;;;5043428;28;20240;-52
2023/05/13 09:42:31;;;;;;;4.63;2.67;;;;;;;;;;5050744;28;20247;-51
2023/05/13 09:45:03;;;;;;;3.03;2.70;;;;;;;;;;5052350;28;20967;-51
2023/05/13 09:47:30;;;;;;;5.47;3.15;;;;;;;;;;5054988;28;20330;-52
2023/05/13 09:49:56;;;;;;;2.95;2.55;;;;;;;;;;5054266;28;20233;-52
2023/05/13 09:52:23;;;;;;;4.72;2.83;;;;;;;;;;5053048;28;20232;-51
2023/05/13 09:54:50;;;;;;;3.33;3.00;;;;;;;;;;5057381;28;20311;-51
2023/05/13 09:57:17;;;;;;;3.45;2.33;;;;;;;;;;5057038;27;20726;-53
2023/05/13 09:59:43;;;;;;;4.07;2.85;;;;;;;;;;5052024;28;20625;-51
2023/05/13 10:02:12;;;;;;;3.90;2.60;;;;;;;;;;5053807;28;20318;-49
2023/05/13 10:04:38;;;;;;;2.78;2.50;;;;;;;;;;5052526;28;20332;-49
2023/05/13 10:07:05;;;;;;;3.33;3.00;;;;;;;;;;5053752;28;20236;-52
2023/05/13 10:09:35;;;;;;;2.75;2.55;;;;;;;;;;5038524;28;20302;-52
2023/05/13 10:12:03;;;;;;;2.88;2.67;;;;;;;;;;5050020;28;20322;-51
2023/05/13 10:14:30;;;;;;;5.38;2.80;;;;;;;;;;5054607;28;20744;-52
2023/05/13 10:16:57;;;;;;;3.67;2.60;;;;;;;;;;5054735;28;20251;-55
2023/05/13 10:19:23;;;;;;;4.32;2.63;;;;;;;;;;5058497;28;20234;-52
2023/05/13 10:21:50;;;;;;;2.78;2.05;;;;;;;;;;5062277;28;20239;-52
2023/05/13 10:24:17;;;;;;;2.70;2.47;;;;;;;;;;5056861;28;20230;-54
2023/05/13 10:26:43;;;;;;;4.90;3.03;;;;;;;;;;5056874;27;20242;-53
2023/05/13 10:29:12;;;;;;;4.72;2.63;;;;;;;;;;5052877;28;20227;-51
2023/05/13 10:31:39;;;;;;;7.80;3.30;;;;;;;;;;5053395;28;20231;-51
2023/05/13 10:34:05;;;;;;;7.63;2.88;;;;;;;;;;5057424;28;20233;-52
2023/05/13 10:36:38;;;;;;;3.05;2.40;;;;;;;;;;5056023;28;20242;-52
2023/05/13 10:39:17;;;;;;;3.05;2.75;;;;;;;;;;5060685;28;20235;-52
2023/05/13 10:42:09;;;;;;;3.10;2.50;;;;;;;;;;5055685;28;20322;-51
2023/05/13 10:44:36;;;;;;;3.45;2.05;;;;;;;;;;5053636;28;20226;-51
2023/05/13 10:47:03;;;;;;;3.13;2.67;;;;;;;;;;5054588;28;20259;-52
2023/05/13 10:49:32;;;;;;;2.53;2.33;;;;;;;;;;5050075;28;20620;-50
2023/05/13 10:52:03;;;;;;;4.10;3.13;;;;;;;;;;5048639;28;20236;-53
2023/05/13 10:54:36;;;;;;;2.75;2.53;;;;;;;;;;5059114;28;20223;-52
2023/05/13 10:57:02;;;;;;;2.35;2.15;;;;;;;;;;5057327;28;20235;-52
2023/05/13 10:59:29;;;;;;;4.15;2.47;;;;;;;;;;5049635;28;20241;-52
2023/05/13 11:02:00;;;;;;;8.20;3.38;;;;;;;;;;5056628;28;20813;-51
2023/05/13 11:04:27;;;;;;;5.35;2.60;;;;;;;;;;5053832;28;20231;-50
2023/05/13 11:06:53;;;;;;;3.47;2.58;;;;;;;;;;5056943;28;20741;-51
2023/05/13 11:09:29;;;;;;;3.58;2.45;;;;;;;;;;5048379;28;20235;-52
2023/05/13 11:11:56;;;;;;;3.20;2.75;;;;;;;;;;5051691;28;20238;-51
2023/05/13 11:14:24;;;;;;;4.43;2.50;;;;;;;;;;5052974;28;20310;-52
2023/05/13 11:16:53;;;;;;;5.90;2.60;;;;;;;;;;5045767;28;20236;-51
2023/05/13 11:19:21;;;;;;;10.48;2.60;;;;;;;;;;5049282;28;20230;-50
2023/05/13 11:21:48;;;;;;;4.22;2.42;;;;;;;;;;5052577;28;20242;-52
2023/05/13 11:24:17;;;;;;;3.92;2.65;;;;;;;;;;5062653;28;20231;-51
2023/05/13 11:26:47;;;;;;;2.65;2.30;;;;;;;;;;5055914;28;20261;-50
2023/05/13 11:29:13;;;;;;;6.75;2.53;;;;;;;;;;5056275;28;20246;-52
2023/05/13 11:31:43;;;;;;;5.03;2.65;;;;;;;;;;5056007;28;20722;-53
2023/05/13 11:34:10;;;;;;;6.55;2.70;;;;;;;;;;5055985;28;20342;-52
2023/05/13 11:36:39;;;;;;;2.67;2.35;;;;;;;;;;5060670;28;20650;-53
2023/05/13 11:39:07;;;;;;;3.05;2.60;;;;;;;;;;5054273;28;20234;-51
2023/05/13 11:41:33;;;;;;;2.45;2.25;;;;;;;;;;5062097;28;20485;-52
2023/05/13 11:44:02;;;;;;;2.90;2.58;;;;;;;;;;5059552;28;20238;-52
2023/05/13 11:46:28;;;;;;;3.25;2.83;;;;;;;;;;5056136;28;20716;-52
2023/05/13 11:48:54;;;;;;;6.72;2.30;;;;;;;;;;5063207;28;20233;-51
2023/05/13 11:51:21;;;;;;;6.05;2.42;;;;;;;;;;5060031;28;20665;-50
2023/05/13 11:53:49;;;;;;;3.33;2.50;;;;;;;;;;5060136;28;20701;-51
2023/05/13 11:56:15;;;;;;;3.55;2.40;;;;;;;;;;5056495;28;20230;-50
2023/05/13 11:58:42;;;;;;;3.00;2.22;;;;;;;;;;5054116;28;20727;-51
2023/05/13 12:01:13;;;;;;;2.30;2.10;;;;;;;;;;5055634;28;20236;-51
2023/05/13 12:03:40;;;;;;;4.05;2.58;;;;;;;;;;5060485;28;20228;-51
2023/05/13 12:06:07;;;;;;;5.18;2.45;;;;;;;;;;5059159;28;20231;-52
2023/05/13 12:08:33;;;;;;;2.97;2.53;;;;;;;;;;5059193;28;20231;-53
2023/05/13 12:11:01;;;;;;;3.13;2.13;;;;;;;;;;5055694;28;21004;-51
2023/05/13 12:13:27;;;;;;;3.42;2.53;;;;;;;;;;5051430;28;20250;-52
2023/05/13 12:15:54;;;;;;;2.58;2.08;;;;;;;;;;5056766;28;20288;-51
2023/05/13 12:18:21;;;;;;;2.90;2.58;;;;;;;;;;5051964;28;20227;-52
2023/05/13 12:20:47;;;;;;;2.72;2.50;;;;;;;;;;5054677;28;20919;-50
2023/05/13 12:23:14;;;;;;;3.17;2.67;;;;;;;;;;5057545;28;20257;-51
2023/05/13 12:25:45;;;;;;;8.50;2.63;;;;;;;;;;5054990;28;20263;-51
2023/05/13 12:28:15;;;;;;;5.90;2.65;;;;;;;;;;5055999;28;20231;-53
2023/05/13 12:30:42;;;;;;;5.65;2.65;;;;;;;;;;5060109;28;20727;-51
2023/05/13 12:33:13;;;;;;;4.63;2.65;;;;;;;;;;5061717;28;20246;-51
2023/05/13 12:35:40;;;;;;;2.65;2.30;;;;;;;;;;5060732;28;20781;-51
2023/05/13 12:38:07;;;;;;;6.40;2.60;;;;;;;;;;5063279;28;20227;-50
2023/05/13 12:40:33;;;;;;;5.13;2.50;;;;;;;;;;5048767;28;20241;-51
2023/05/13 12:43:00;;;;;;;4.93;2.60;;;;;;;;;;5056505;28;20231;-51
2023/05/13 12:45:29;;;;;;;7.70;2.95;;;;;;;;;;5054521;28;20323;-51
2023/05/13 12:47:56;;;;;;;4.40;2.83;;;;;;;;;;5060843;28;20236;-51
2023/05/13 12:50:22;;;;;;;3.80;2.85;;;;;;;;;;5058014;28;20236;-50
2023/05/13 12:52:49;;;;;;;2.60;2.40;;;;;;;;;;5057399;28;21268;-52
2023/05/13 12:55:15;;;;;;;3.35;2.17;;;;;;;;;;5057447;28;20321;-52
2023/05/13 12:57:42;;;;;;;6.88;3.38;;;;;;;;;;5056425;28;20270;-52
2023/05/13 13:00:10;;;;;;;3.78;2.38;;;;;;;;;;5062586;28;20235;-51
2023/05/13 13:02:39;;;;;;;5.35;2.70;;;;;;;;;;5056758;28;20317;-52
2023/05/13 13:05:06;;;;;;;6.72;2.75;;;;;;;;;;5061141;28;20892;-51
2023/05/13 13:07:32;;;;;;;2.50;1.90;;;;;;;;;;5060940;28;20245;-51
2023/05/13 13:09:58;;;;;;;2.70;2.40;;;;;;;;;;5055221;28;20715;-52
2023/05/13 13:12:25;;;;;;;6.72;2.72;;;;;;;;;;5050588;28;20335;-52
2023/05/13 13:14:52;;;;;;;4.20;2.22;;;;;;;;;;5056357;28;20227;-52
2023/05/13 13:17:18;;;;;;;3.38;2.28;;;;;;;;;;5061646;28;20342;-50
2023/05/13 13:19:46;;;;;;;2.95;2.65;;;;;;;;;;5056856;28;20311;-51
2023/05/13 13:22:12;;;;;;;3.42;2.70;;;;;;;;;;5055873;28;20605;-51
2023/05/13 13:24:38;;;;;;;8.80;2.40;;;;;;;;;;5057879;28;20235;-52
2023/05/13 13:27:05;;;;;;;3.17;2.38;;;;;;;;;;5058741;28;20883;-50
2023/05/13 13:29:31;;;;;;;3.35;2.40;;;;;;;;;;5058198;28;20727;-51
2023/05/13 13:31:58;;;;;;;3.25;2.75;;;;;;;;;;5065476;28;20511;-51
2023/05/13 13:34:24;;;;;;;2.45;2.25;;;;;;;;;;5056905;28;20322;-51
2023/05/13 13:36:52;;;;;;;5.47;2.95;;;;;;;;;;5057352;28;20232;-51
2023/05/13 13:39:18;;;;;;;5.10;2.47;;;;;;;;;;5055830;28;20322;-51
2023/05/13 13:41:46;;;;;;;3.33;2.67;;;;;;;;;;5056834;28;20239;-51
2023/05/13 13:44:12;;;;;;;5.45;2.50;;;;;;;;;;5060422;28;20246;-51
2023/05/13 13:46:38;;;;;;;3.20;2.75;;;;;;;;;;5057488;28;20325;-51
2023/05/13 13:49:05;;;;;;;2.92;2.40;;;;;;;;;;5052790;28;20313;-52
2023/05/13 13:51:32;;;;;;;14.15;3.28;;;;;;;;;;5053663;28;20235;-52
2023/05/13 13:54:04;;;;;;;3.17;2.58;;;;;;;;;;5055707;28;20235;-53
2023/05/13 13:56:30;;;;;;;9.52;2.92;;;;;;;;;;5054702;28;20317;-51
2023/05/13 13:58:57;;;;;;;4.82;3.40;;;;;;;;;;5049594;28;20376;-52
2023/05/13 14:01:23;;;;;;;5.75;2.97;;;;;;;;;;5059471;28;20237;-51
2023/05/13 14:03:50;;;;;;;3.38;3.08;;;;;;;;;;5054710;28;20620;-52
2023/05/13 14:06:16;;;;;;;3.45;2.85;;;;;;;;;;5050904;28;20232;-52
2023/05/13 14:08:43;;;;;;;5.90;2.85;;;;;;;;;;5055304;28;20239;-51
2023/05/13 14:11:11;;;;;;;3.00;2.70;;;;;;;;;;5054948;28;20228;-51
2023/05/13 14:13:37;;;;;;;3.80;2.70;;;;;;;;;;5054666;28;20239;-49
2023/05/13 14:16:04;;;;;;;3.75;2.85;;;;;;;;;;5042244;28;20709;-51
2023/05/13 14:18:30;;;;;;;4.10;2.95;;;;;;;;;;5052879;28;20314;-52
2023/05/13 14:20:57;;;;;;;5.65;2.97;;;;;;;;;;5054666;28;20717;-52
2023/05/13 14:23:23;;;;;;;2.92;2.70;;;;;;;;;;5056032;28;20237;-51
2023/05/13 14:25:49;;;;;;;2.85;2.53;;;;;;;;;;5059198;28;20223;-52
2023/05/13 14:28:17;;;;;;;8.52;2.75;;;;;;;;;;5043807;28;20239;-50
2023/05/13 14:30:43;;;;;;;6.70;3.40;;;;;;;;;;5055066;28;20605;-52
2023/05/13 14:33:10;;;;;;;3.05;2.75;;;;;;;;;;5047489;28;20255;-52
2023/05/13 14:35:36;;;;;;;3.15;2.95;;;;;;;;;;5058635;28;20239;-52
2023/05/13 14:38:03;;;;;;;3.78;2.58;;;;;;;;;;5065137;28;20243;-52
2023/05/13 14:40:29;;;;;;;4.75;2.75;;;;;;;;;;5060424;28;20258;-51
2023/05/13 14:42:55;;;;;;;3.20;2.58;;;;;;;;;;5062753;28;20235;-52